Terminal Aerodrome Forecast
Issued by NWS Central Illinois

Home | Current Version | Previous Version | Text Only | Print | Product List | Glossary On
Versions: 1 2 3 4 5 6 7 8 9 10 11 12 13 14 15 16 17 18 19
000
FTUS43 KILX 271100 RRA
TAFSPI
TAF
KSPI 271141Z 2712/2812 VRB05KT P6SM FEW100
     FM272000 04006KT P6SM VCTS BKN050CB
     FM280100 02004KT P6SM BKN250=

USA.gov is the U.S. government's official web portal to all federal, state and local government web resources and services.